EDLW/DTM METAR and TAF weather

Enter ICAO airport designator
Station Type Date Time Source
EDLW METAR 2019/10/21 23:20 UTC NOAA

EDLW 212320Z AUTO 18007KT 9999 // FEW039/// 10/08 Q1021


Station Type Date Time Source
EDLW Decoded METAR 2019/10/21 23:20 UTC NOAA

Dortmund / Wickede, Germany (EDLW) 51-31N 007-37E
Oct 21, 2019 - 07:20 PM EDT / 2019.10.21 2320 UTC
Wind: from the S (180 degrees) at 8 MPH (7 KT):0
Visibility: greater than 7 mile(s):0
Sky conditions: mostly clear
Temperature: 50 F (10 C)
Dew Point: 46 F (8 C)
Relative Humidity: 87%
Pressure (altimeter): 30.15 in. Hg (1021 hPa)
ob: EDLW 212320Z AUTO 18007KT 9999 // FEW039/// 10/08 Q1021
cycle: 23

Station Type Date Time Source
EDLW TAF 2019/10/21 20:59 UTC NOAA

TAF EDLW 212050Z 2120/2218 CNL

Example: see airport list